createdAt,value
2022-08-25T00:00:12.291Z,21.71
2022-08-25T00:02:39.158Z,21.59
2022-08-25T00:05:06.606Z,21.63
2022-08-25T00:07:34.891Z,21.56
2022-08-25T00:10:01.726Z,21.56
2022-08-25T00:12:28.546Z,21.51
2022-08-25T00:14:55.387Z,21.40
2022-08-25T00:17:22.224Z,21.36
2022-08-25T00:19:49.572Z,21.44
2022-08-25T00:22:16.588Z,21.36
2022-08-25T00:24:43.415Z,21.28
2022-08-25T00:27:12.579Z,21.29
2022-08-25T00:29:39.701Z,21.34
2022-08-25T00:32:06.830Z,21.30
2022-08-25T00:34:37.492Z,21.13
2022-08-25T00:37:09.141Z,21.06
2022-08-25T00:39:37.013Z,21.10
2022-08-25T00:42:04.679Z,21.06
2022-08-25T00:44:39.526Z,20.99
2022-08-25T00:47:06.977Z,20.91
2022-08-25T00:49:40.740Z,20.93
2022-08-25T00:52:16.770Z,20.85
2022-08-25T00:54:52.037Z,20.81
2022-08-25T00:57:48.361Z,20.81
2022-08-25T01:00:25.710Z,20.87
2022-08-25T01:02:54.357Z,20.80
2022-08-25T01:05:21.388Z,20.69
2022-08-25T01:07:50.301Z,20.83
2022-08-25T01:10:20.300Z,20.74
2022-08-25T01:12:47.293Z,20.72
2022-08-25T01:15:15.320Z,20.65
2022-08-25T01:17:49.648Z,20.67
2022-08-25T01:20:21.846Z,20.68
2022-08-25T01:22:55.088Z,20.68
2022-08-25T01:25:37.272Z,20.54
2022-08-25T01:28:06.331Z,20.54
2022-08-25T01:30:33.677Z,20.33
2022-08-25T01:33:05.137Z,20.40
2022-08-25T01:35:32.842Z,20.31
2022-08-25T01:38:06.399Z,20.37
2022-08-25T01:40:35.812Z,20.44
2022-08-25T01:43:17.357Z,20.45
2022-08-25T01:45:47.854Z,20.42
2022-08-25T01:48:16.550Z,20.37
2022-08-25T01:50:44.173Z,20.38
2022-08-25T01:53:23.887Z,20.33
2022-08-25T01:55:55.228Z,20.22
2022-08-25T01:58:29.049Z,20.18
2022-08-25T02:00:59.596Z,20.21
2022-08-25T02:03:27.386Z,20.22
2022-08-25T02:05:56.201Z,20.25
2022-08-25T02:08:24.188Z,20.25
2022-08-25T02:10:53.804Z,20.29
2022-08-25T02:13:21.121Z,20.15
2022-08-25T02:15:57.216Z,20.18
2022-08-25T02:18:24.441Z,20.14
2022-08-25T02:20:51.325Z,20.22
2022-08-25T02:23:18.709Z,20.02
2022-08-25T02:25:45.668Z,20.02
2022-08-25T02:28:12.508Z,19.99
2022-08-25T02:30:42.474Z,19.87
2022-08-25T02:33:10.613Z,19.90
2022-08-25T02:35:38.350Z,19.80
2022-08-25T02:38:05.770Z,19.83
2022-08-25T02:40:33.220Z,19.89
2022-08-25T02:43:00.086Z,19.94
2022-08-25T02:45:27.016Z,19.86
2022-08-25T02:47:54.660Z,19.95
2022-08-25T02:50:21.508Z,19.99
2022-08-25T02:52:50.536Z,19.95
2022-08-25T02:55:17.909Z,20.07
2022-08-25T02:57:44.812Z,20.03
2022-08-25T03:00:14.830Z,20.06
2022-08-25T03:02:42.888Z,19.96
2022-08-25T03:05:12.173Z,19.85
2022-08-25T03:07:39.068Z,19.85
2022-08-25T03:10:15.690Z,19.91
2022-08-25T03:12:42.599Z,19.84
2022-08-25T03:15:13.182Z,19.72
2022-08-25T03:17:40.346Z,19.78
2022-08-25T03:20:08.326Z,19.86
2022-08-25T03:22:35.357Z,19.77
2022-08-25T03:25:24.258Z,19.86
2022-08-25T03:27:51.901Z,19.81
2022-08-25T03:30:19.568Z,19.79
2022-08-25T03:32:46.500Z,19.78
2022-08-25T03:35:14.406Z,19.66
2022-08-25T03:37:41.496Z,19.67
2022-08-25T03:40:15.401Z,19.63
2022-08-25T03:42:45.405Z,19.60
2022-08-25T03:45:14.330Z,19.62
2022-08-25T03:47:41.286Z,19.61
2022-08-25T03:50:11.316Z,19.54
2022-08-25T03:52:42.447Z,19.61
2022-08-25T03:55:13.518Z,19.57
2022-08-25T03:57:40.587Z,19.48
2022-08-25T04:00:10.292Z,19.47
2022-08-25T04:02:37.172Z,19.48
2022-08-25T04:05:04.703Z,19.45
2022-08-25T04:07:31.704Z,19.43
2022-08-25T04:09:58.605Z,19.30
2022-08-25T04:12:25.811Z,19.25
2022-08-25T04:14:52.669Z,19.30
2022-08-25T04:17:19.754Z,19.18
2022-08-25T04:19:46.581Z,19.18
2022-08-25T04:22:13.478Z,19.10
2022-08-25T04:24:40.612Z,19.07
2022-08-25T04:27:07.477Z,19.08
2022-08-25T04:29:34.634Z,19.10
2022-08-25T04:32:01.576Z,19.12
2022-08-25T04:34:31.319Z,19.10
2022-08-25T04:37:01.432Z,19.16
2022-08-25T04:39:28.970Z,19.21
2022-08-25T04:41:55.944Z,19.15
2022-08-25T04:44:22.744Z,19.18
2022-08-25T04:46:49.963Z,19.24
2022-08-25T04:49:16.828Z,19.13
2022-08-25T04:51:44.158Z,19.24
2022-08-25T04:54:16.917Z,19.15
2022-08-25T04:56:44.245Z,19.21
2022-08-25T04:59:14.483Z,19.26
2022-08-25T05:01:43.162Z,19.14
2022-08-25T05:04:14.575Z,19.27
2022-08-25T05:06:56.201Z,19.12
2022-08-25T05:09:23.523Z,19.03
2022-08-25T05:11:52.363Z,18.94
2022-08-25T05:14:22.210Z,19.07
2022-08-25T05:16:53.122Z,19.15
2022-08-25T05:19:20.039Z,19.10
2022-08-25T05:21:47.084Z,19.12
2022-08-25T05:24:13.990Z,19.18
2022-08-25T05:26:41.210Z,19.25
2022-08-25T05:29:10.782Z,19.12
2022-08-25T05:31:41.898Z,19.22
2022-08-25T05:34:12.138Z,19.11
2022-08-25T05:36:43.168Z,19.10
2022-08-25T05:39:10.957Z,19.11
2022-08-25T05:41:38.203Z,19.17
2022-08-25T05:44:05.274Z,19.09
2022-08-25T05:46:32.279Z,19.15
2022-08-25T05:48:59.520Z,19.26
2022-08-25T05:51:26.682Z,19.27
2022-08-25T05:53:54.046Z,19.31
2022-08-25T05:56:21.631Z,19.42
2022-08-25T05:58:50.134Z,19.48
2022-08-25T06:01:46.366Z,19.46
2022-08-25T06:04:15.815Z,19.57
2022-08-25T06:06:42.621Z,19.58
2022-08-25T06:09:10.344Z,19.64
2022-08-25T06:11:39.776Z,19.66
2022-08-25T06:14:08.916Z,19.67
2022-08-25T06:16:36.156Z,19.67
2022-08-25T06:19:03.180Z,19.70
2022-08-25T06:21:30.534Z,19.72
2022-08-25T06:23:57.334Z,19.77
2022-08-25T06:26:24.867Z,19.78
2022-08-25T06:28:52.625Z,19.81
2022-08-25T06:31:22.237Z,19.74
2022-08-25T06:33:49.992Z,19.81
2022-08-25T06:36:17.476Z,19.79
2022-08-25T06:38:44.308Z,19.93
2022-08-25T06:41:12.491Z,19.86
2022-08-25T06:43:47.373Z,20.00
2022-08-25T06:46:21.387Z,20.05
2022-08-25T06:48:49.515Z,20.04
2022-08-25T06:51:19.105Z,20.17
2022-08-25T06:53:48.984Z,20.20
2022-08-25T06:56:19.025Z,20.26
2022-08-25T06:58:46.775Z,20.28
2022-08-25T07:01:26.691Z,20.34
2022-08-25T07:03:59.893Z,20.46
2022-08-25T07:06:33.012Z,20.41
2022-08-25T07:09:00.256Z,20.44
2022-08-25T07:11:27.458Z,20.46
2022-08-25T07:13:54.343Z,20.32
2022-08-25T07:16:21.877Z,20.54
2022-08-25T07:18:49.530Z,20.65
2022-08-25T07:21:17.449Z,20.64
2022-08-25T07:23:46.568Z,20.68
2022-08-25T07:29:31.996Z,20.86
2022-08-25T07:32:00.549Z,20.85
2022-08-25T07:34:45.707Z,21.01
2022-08-25T07:37:45.436Z,21.23
2022-08-25T07:40:12.397Z,21.13
2022-08-25T07:42:39.342Z,21.13
2022-08-25T07:45:07.517Z,21.19
2022-08-25T07:47:34.759Z,21.27
2022-08-25T07:50:01.746Z,21.36
2022-08-25T07:52:28.555Z,21.37
2022-08-25T07:54:55.413Z,21.42
2022-08-25T07:57:24.558Z,21.51
2022-08-25T07:59:51.399Z,21.50
2022-08-25T08:02:19.486Z,21.78
2022-08-25T08:04:53.266Z,21.96
2022-08-25T08:07:33.610Z,21.99
2022-08-25T08:13:01.308Z,21.97
2022-08-25T08:15:29.565Z,21.86
2022-08-25T08:17:58.384Z,21.97
2022-08-25T08:20:27.161Z,22.01
2022-08-25T08:22:54.393Z,22.15
2022-08-25T08:25:27.088Z,22.23
2022-08-25T08:27:55.900Z,22.29
2022-08-25T08:30:26.254Z,22.35
2022-08-25T08:33:11.896Z,22.32
2022-08-25T08:35:41.079Z,22.34
2022-08-25T08:38:14.695Z,22.48
2022-08-25T08:41:40.191Z,22.53
2022-08-25T08:44:42.506Z,22.64
2022-08-25T08:47:49.306Z,22.74
2022-08-25T08:50:34.845Z,22.78
2022-08-25T08:53:16.451Z,22.85
2022-08-25T08:55:52.736Z,22.89
2022-08-25T08:58:26.196Z,22.95
2022-08-25T09:00:58.290Z,23.04
2022-08-25T09:03:55.293Z,23.07
2022-08-25T09:06:37.986Z,23.08
2022-08-25T09:09:06.951Z,23.32
2022-08-25T09:11:58.174Z,23.42
2022-08-25T09:14:53.853Z,23.41
2022-08-25T09:17:54.398Z,23.35
2022-08-25T09:20:40.144Z,23.43
2022-08-25T09:23:34.230Z,23.51
2022-08-25T09:26:13.483Z,23.58
2022-08-25T09:28:51.229Z,23.60
2022-08-25T09:31:48.625Z,23.59
2022-08-25T09:34:25.261Z,23.73
2022-08-25T09:36:52.975Z,23.67
2022-08-25T09:39:21.242Z,23.81
2022-08-25T09:41:51.990Z,23.86
2022-08-25T09:44:26.782Z,23.85
2022-08-25T09:50:04.527Z,24.11
2022-08-25T09:52:38.371Z,24.03
2022-08-25T09:55:08.276Z,24.24
2022-08-25T09:57:47.139Z,24.26
2022-08-25T10:00:22.414Z,24.57
2022-08-25T10:03:22.482Z,24.62
2022-08-25T10:05:57.371Z,24.71
2022-08-25T10:08:51.527Z,24.72
2022-08-25T10:11:44.355Z,24.74
2022-08-25T10:14:21.843Z,24.84
2022-08-25T10:16:49.759Z,24.90
2022-08-25T10:19:29.312Z,24.94
2022-08-25T10:22:12.703Z,25.01
2022-08-25T10:24:43.908Z,24.99
2022-08-25T10:27:32.200Z,25.19
2022-08-25T10:30:22.888Z,25.29
2022-08-25T10:33:14.612Z,25.31
2022-08-25T10:36:06.525Z,25.35
2022-08-25T10:38:47.834Z,25.81
2022-08-25T10:41:49.635Z,25.81
2022-08-25T10:45:11.437Z,25.89
2022-08-25T10:48:24.817Z,26.44
2022-08-25T10:51:02.157Z,26.46
2022-08-25T10:53:41.301Z,26.53
2022-08-25T10:56:22.450Z,26.67
2022-08-25T10:59:29.901Z,26.89
2022-08-25T11:02:45.529Z,27.17
2022-08-25T11:05:51.263Z,27.16
2022-08-25T11:08:35.691Z,26.89
2022-08-25T11:11:35.030Z,26.81
2022-08-25T11:14:34.005Z,26.86
2022-08-25T11:17:20.404Z,26.95
2022-08-25T11:19:57.019Z,27.20
2022-08-25T11:22:35.519Z,27.13
2022-08-25T11:25:37.747Z,27.05
2022-08-25T11:28:23.178Z,27.32
2022-08-25T11:30:53.242Z,27.27
2022-08-25T11:33:20.691Z,27.25
2022-08-25T11:36:10.818Z,27.45
2022-08-25T11:39:11.535Z,27.91
2022-08-25T11:42:00.746Z,28.22
2022-08-25T11:44:53.644Z,29.10
2022-08-25T11:47:58.609Z,29.50
2022-08-25T11:50:54.115Z,29.58
2022-08-25T11:53:37.921Z,29.38
2022-08-25T11:56:32.603Z,29.31
2022-08-25T11:58:59.686Z,29.26
2022-08-25T12:01:44.348Z,29.41
2022-08-25T12:04:44.522Z,29.14
2022-08-25T12:07:19.135Z,29.05
2022-08-25T12:09:53.830Z,29.08
2022-08-25T12:12:56.659Z,29.13
2022-08-25T12:15:56.111Z,29.04
2022-08-25T12:18:22.903Z,28.90
2022-08-25T12:20:58.487Z,28.64
2022-08-25T12:23:29.873Z,28.70
2022-08-25T12:26:05.056Z,29.26
2022-08-25T12:28:52.142Z,29.29
2022-08-25T12:31:42.668Z,29.23
2022-08-25T12:34:36.487Z,29.17
2022-08-25T12:37:17.336Z,29.12
2022-08-25T12:40:08.049Z,28.89
2022-08-25T12:42:39.942Z,28.79
2022-08-25T12:45:33.265Z,28.60
2022-08-25T12:48:26.132Z,28.68
2022-08-25T12:51:17.378Z,28.94
2022-08-25T12:53:57.953Z,28.78
2022-08-25T12:56:33.157Z,28.71
2022-08-25T12:59:23.205Z,28.75
2022-08-25T13:02:07.239Z,28.68
2022-08-25T13:05:03.324Z,28.72
2022-08-25T13:07:56.668Z,28.83
2022-08-25T13:10:48.818Z,28.91
2022-08-25T13:13:49.465Z,29.16
2022-08-25T13:16:29.535Z,29.31
2022-08-25T13:18:59.432Z,29.45
2022-08-25T13:21:42.512Z,29.62
2022-08-25T13:24:19.240Z,29.40
2022-08-25T13:26:48.982Z,29.30
2022-08-25T13:30:05.270Z,29.09
2022-08-25T13:32:38.857Z,29.10
2022-08-25T13:35:28.932Z,29.14
2022-08-25T13:38:19.389Z,29.14
2022-08-25T13:40:47.864Z,28.98
2022-08-25T13:43:15.554Z,28.80
2022-08-25T13:45:46.287Z,28.89
2022-08-25T13:48:20.877Z,28.89
2022-08-25T13:50:51.593Z,28.95
2022-08-25T13:53:25.690Z,28.91
2022-08-25T13:56:00.469Z,29.38
2022-08-25T13:58:38.845Z,29.43
2022-08-25T14:01:48.679Z,29.39
2022-08-25T14:04:21.806Z,29.26
2022-08-25T14:07:14.938Z,29.32
2022-08-25T14:09:54.613Z,29.37
2022-08-25T14:12:31.799Z,29.71
2022-08-25T14:15:07.477Z,29.62
2022-08-25T14:17:39.026Z,29.56
2022-08-25T14:20:28.907Z,29.40
2022-08-25T14:23:00.054Z,29.44
2022-08-25T14:25:30.532Z,29.32
2022-08-25T14:28:08.361Z,29.24
2022-08-25T14:30:43.495Z,29.13
2022-08-25T14:33:14.678Z,29.04
2022-08-25T14:35:47.548Z,29.18
2022-08-25T14:38:15.152Z,29.41
2022-08-25T14:40:42.414Z,29.16
2022-08-25T14:43:10.109Z,29.27
2022-08-25T14:45:40.624Z,29.13
2022-08-25T14:48:14.220Z,29.07
2022-08-25T14:50:42.175Z,29.22
2022-08-25T14:53:11.493Z,29.60
2022-08-25T14:55:38.857Z,29.63
2022-08-25T14:58:07.032Z,29.41
2022-08-25T15:00:42.902Z,29.37
2022-08-25T15:03:21.587Z,29.33
2022-08-25T15:05:48.538Z,29.45
2022-08-25T15:08:35.548Z,29.59
2022-08-25T15:11:08.791Z,29.54
2022-08-25T15:13:36.593Z,29.47
2022-08-25T15:16:04.379Z,29.32
2022-08-25T15:18:31.274Z,29.33
2022-08-25T15:20:58.125Z,29.26
2022-08-25T15:23:25.149Z,29.59
2022-08-25T15:25:55.449Z,29.76
2022-08-25T15:28:22.604Z,29.71
2022-08-25T15:30:50.560Z,29.79
2022-08-25T15:33:17.914Z,29.95
2022-08-25T15:35:46.241Z,29.86
2022-08-25T15:38:13.338Z,29.90
2022-08-25T15:40:40.514Z,29.94
2022-08-25T15:43:07.624Z,29.77
2022-08-25T15:45:36.097Z,29.65
2022-08-25T15:48:07.403Z,29.71
2022-08-25T15:50:37.352Z,29.60
2022-08-25T15:53:07.068Z,29.58
2022-08-25T15:55:40.428Z,29.68
2022-08-25T15:58:08.692Z,29.61
2022-08-25T16:00:36.748Z,29.64
2022-08-25T16:03:05.384Z,29.64
2022-08-25T16:05:41.368Z,29.59
2022-08-25T16:08:19.307Z,29.46
2022-08-25T16:10:47.390Z,29.42
2022-08-25T16:13:14.829Z,29.31
2022-08-25T16:15:53.000Z,29.38
2022-08-25T16:18:22.947Z,29.39
2022-08-25T16:20:50.200Z,29.51
2022-08-25T16:23:19.222Z,29.58
2022-08-25T16:25:47.713Z,29.40
2022-08-25T16:28:16.928Z,29.47
2022-08-25T16:30:52.584Z,29.44
2022-08-25T16:33:21.327Z,29.43
2022-08-25T16:35:49.278Z,29.45
2022-08-25T16:38:16.575Z,29.37
2022-08-25T16:40:45.820Z,29.43
2022-08-25T16:43:12.942Z,29.49
2022-08-25T16:45:39.751Z,29.55
2022-08-25T16:48:07.091Z,29.43
2022-08-25T16:50:34.606Z,29.52
2022-08-25T16:53:20.031Z,29.58
2022-08-25T16:56:00.308Z,29.47
2022-08-25T16:58:27.116Z,29.51
2022-08-25T17:01:06.158Z,29.59
2022-08-25T17:03:36.960Z,29.57
2022-08-25T17:06:04.006Z,29.68
2022-08-25T17:08:33.234Z,29.94
2022-08-25T17:11:14.285Z,29.83
2022-08-25T17:13:49.689Z,29.57
2022-08-25T17:16:18.840Z,29.50
2022-08-25T17:18:48.062Z,29.41
2022-08-25T17:21:21.992Z,29.33
2022-08-25T17:23:51.673Z,29.31
2022-08-25T17:26:19.795Z,29.15
2022-08-25T17:28:54.593Z,29.21
2022-08-25T17:31:23.004Z,29.11
2022-08-25T17:33:52.287Z,29.04
2022-08-25T17:36:19.616Z,28.85
2022-08-25T17:38:46.487Z,28.96
2022-08-25T17:41:14.564Z,28.77
2022-08-25T17:43:43.577Z,28.72
2022-08-25T17:46:11.901Z,28.66
2022-08-25T17:48:43.925Z,28.62
2022-08-25T17:51:11.456Z,28.62
2022-08-25T17:53:38.829Z,28.55
2022-08-25T17:56:11.164Z,28.55
2022-08-25T17:58:39.231Z,28.42
2022-08-25T18:01:07.780Z,28.43
2022-08-25T18:03:35.361Z,28.37
2022-08-25T18:06:04.396Z,28.27
2022-08-25T18:08:34.809Z,28.13
2022-08-25T18:11:04.193Z,28.10
2022-08-25T18:13:31.611Z,28.09
2022-08-25T18:15:59.072Z,27.96
2022-08-25T18:18:26.244Z,27.97
2022-08-25T18:20:53.185Z,27.86
2022-08-25T18:23:20.134Z,27.76
2022-08-25T18:25:49.382Z,27.66
2022-08-25T18:28:17.141Z,27.61
2022-08-25T18:30:44.437Z,27.61
2022-08-25T18:33:12.074Z,27.50
2022-08-25T18:35:38.970Z,27.41
2022-08-25T18:38:25.562Z,27.29
2022-08-25T18:40:58.742Z,27.29
2022-08-25T18:43:26.400Z,27.20
2022-08-25T18:45:53.493Z,27.14
2022-08-25T18:48:23.701Z,27.09
2022-08-25T18:50:54.323Z,26.96
2022-08-25T18:53:36.747Z,27.00
2022-08-25T18:56:10.329Z,26.87
2022-08-25T18:58:37.129Z,26.82
2022-08-25T19:01:05.341Z,26.57
2022-08-25T19:03:32.525Z,26.60
2022-08-25T19:06:00.102Z,26.52
2022-08-25T19:08:27.538Z,26.42
2022-08-25T19:10:54.474Z,26.39
2022-08-25T19:13:22.414Z,26.32
2022-08-25T19:15:52.397Z,26.10
2022-08-25T19:18:26.142Z,26.12
2022-08-25T19:20:56.223Z,26.18
2022-08-25T19:23:23.035Z,26.11
2022-08-25T19:25:49.908Z,26.08
2022-08-25T19:28:16.861Z,26.06
2022-08-25T19:30:50.713Z,25.99
2022-08-25T19:33:42.446Z,25.95
2022-08-25T19:36:08.545Z,25.89
2022-08-25T19:38:37.242Z,25.73
2022-08-25T19:41:10.611Z,25.76
2022-08-25T19:43:56.272Z,25.59
2022-08-25T19:46:33.280Z,25.53
2022-08-25T19:49:13.070Z,25.36
2022-08-25T19:51:44.963Z,25.42
2022-08-25T19:54:19.011Z,25.26
2022-08-25T19:56:54.568Z,25.16
2022-08-25T19:59:40.783Z,24.97
2022-08-25T20:02:16.445Z,24.94
2022-08-25T20:04:50.282Z,24.97
2022-08-25T20:07:22.726Z,24.85
2022-08-25T20:09:52.265Z,24.87
2022-08-25T20:12:20.411Z,24.84
2022-08-25T20:14:50.572Z,24.83
2022-08-25T20:17:24.863Z,24.74
2022-08-25T20:19:56.965Z,24.67
2022-08-25T20:22:27.050Z,24.71
2022-08-25T20:24:58.283Z,24.63
2022-08-25T20:27:33.841Z,24.59
2022-08-25T20:30:02.623Z,24.63
2022-08-25T20:32:32.548Z,24.61
2022-08-25T20:35:00.922Z,24.59
2022-08-25T20:37:27.886Z,24.60
2022-08-25T20:39:55.029Z,24.58
2022-08-25T20:42:22.061Z,24.46
2022-08-25T20:44:49.091Z,24.43
2022-08-25T20:47:16.178Z,24.37
2022-08-25T20:49:45.718Z,24.31
2022-08-25T20:52:14.111Z,24.12
2022-08-25T20:54:47.130Z,24.23
2022-08-25T20:57:24.394Z,24.17
2022-08-25T20:59:54.728Z,24.02
2022-08-25T21:02:23.044Z,23.96
2022-08-25T21:04:50.559Z,23.88
2022-08-25T21:07:19.462Z,23.73
2022-08-25T21:09:46.677Z,23.80
2022-08-25T21:12:14.849Z,23.85
2022-08-25T21:14:42.345Z,23.76
2022-08-25T21:17:12.622Z,23.84
2022-08-25T21:19:40.180Z,23.76
2022-08-25T21:22:09.505Z,23.79
2022-08-25T21:24:38.416Z,23.63
2022-08-25T21:27:05.515Z,23.68
2022-08-25T21:29:33.092Z,23.63
2022-08-25T21:32:00.524Z,23.68
2022-08-25T21:34:28.801Z,23.46
2022-08-25T21:36:57.972Z,23.52
2022-08-25T21:39:27.515Z,23.54
2022-08-25T21:41:56.382Z,23.35
2022-08-25T21:44:23.539Z,23.34
2022-08-25T21:46:54.464Z,23.24
2022-08-25T21:49:23.263Z,23.29
2022-08-25T21:51:59.180Z,23.30
2022-08-25T21:54:28.787Z,23.24
2022-08-25T21:57:07.564Z,23.23
2022-08-25T21:59:40.444Z,23.15
2022-08-25T22:02:11.719Z,23.24
2022-08-25T22:04:39.583Z,23.21
2022-08-25T22:07:08.923Z,23.15
2022-08-25T22:09:36.470Z,23.14
2022-08-25T22:12:04.656Z,23.08
2022-08-25T22:14:32.457Z,23.06
2022-08-25T22:16:59.882Z,23.06
2022-08-25T22:19:27.522Z,23.02
2022-08-25T22:21:55.659Z,22.97
2022-08-25T22:24:23.159Z,22.98
2022-08-25T22:26:56.030Z,22.96
2022-08-25T22:29:25.487Z,22.85
2022-08-25T22:31:59.457Z,22.83
2022-08-25T22:34:34.210Z,22.78
2022-08-25T22:37:04.189Z,22.83
2022-08-25T22:39:34.209Z,22.78
2022-08-25T22:42:02.776Z,22.74
2022-08-25T22:44:29.955Z,22.62
2022-08-25T22:46:56.784Z,22.64
2022-08-25T22:49:23.729Z,22.53
2022-08-25T22:51:50.913Z,22.62
2022-08-25T22:54:18.063Z,22.53
2022-08-25T22:56:44.893Z,22.47
2022-08-25T22:59:13.724Z,22.46
2022-08-25T23:01:43.340Z,22.28
2022-08-25T23:04:10.918Z,22.25
2022-08-25T23:06:38.320Z,22.18
2022-08-25T23:09:08.873Z,22.33
2022-08-25T23:11:38.601Z,22.18
2022-08-25T23:14:09.997Z,22.30
2022-08-25T23:16:39.239Z,22.26
2022-08-25T23:19:06.335Z,22.13
2022-08-25T23:21:53.096Z,22.07
2022-08-25T23:24:29.242Z,22.17
2022-08-25T23:27:02.058Z,22.06
2022-08-25T23:29:30.280Z,22.15
2022-08-25T23:31:58.662Z,22.12
2022-08-25T23:34:26.066Z,21.87
2022-08-25T23:36:53.575Z,22.03
2022-08-25T23:39:21.794Z,21.91
2022-08-25T23:41:50.103Z,21.85
2022-08-25T23:44:18.849Z,21.87
2022-08-25T23:46:47.557Z,21.91
2022-08-25T23:49:18.676Z,21.91
2022-08-25T23:51:47.782Z,21.97
2022-08-25T23:54:16.769Z,21.90
2022-08-25T23:56:51.659Z,21.88
2022-08-25T23:59:24.520Z,21.90
